Time;durP1;ratioP1;P1;durP2;ratioP2;P2;SDS_P1;SDS_P2;PMS_P1;PMS_P2;Temp;Humidity;BMP_temperature;BMP_pressure;BME280_temperature;BME280_humidity;BME280_pressure;Samples;Min_cycle;Max_cycle;Signal;HPM_P1;HPM_P2
2021/04/29 00:01:30;;;;;;;9.82;3.00;;;;;;;23.82;38.39;99010.72;4484163;32;35388;-59
2021/04/29 00:03:57;;;;;;;10.02;3.17;;;;;;;23.80;38.40;99008.25;4483759;32;33828;-58
2021/04/29 00:06:25;;;;;;;11.00;3.22;;;;;;;23.81;38.38;99006.34;4484037;32;34575;-59
2021/04/29 00:08:57;;;;;;;9.50;2.78;;;;;;;23.80;38.43;99008.25;4484101;32;33588;-59
2021/04/29 00:11:25;;;;;;;11.95;2.75;;;;;;;23.81;38.40;99011.81;4483944;32;33611;-59
2021/04/29 00:13:52;;;;;;;8.40;3.00;;;;;;;23.80;38.50;99011.00;4484176;32;33826;-59
2021/04/29 00:16:19;;;;;;;8.80;3.22;;;;;;;23.80;38.44;99018.34;4484013;32;33990;-58
2021/04/29 00:18:46;;;;;;;13.15;3.22;;;;;;;23.78;38.41;99007.69;4483857;32;34207;-58
2021/04/29 00:21:13;;;;;;;12.30;3.30;;;;;;;23.79;38.50;99016.69;4483904;32;34305;-58
2021/04/29 00:23:41;;;;;;;8.95;3.25;;;;;;;23.79;38.46;99011.25;4483809;32;33857;-58
2021/04/29 00:26:08;;;;;;;10.13;3.30;;;;;;;23.78;38.45;99015.00;4483886;32;33273;-59
2021/04/29 00:28:35;;;;;;;8.07;2.95;;;;;;;23.78;38.44;99015.88;4484005;32;33450;-59
2021/04/29 00:31:02;;;;;;;9.30;3.00;;;;;;;23.77;38.42;99013.38;4483918;32;33949;-58
2021/04/29 00:33:30;;;;;;;9.45;2.70;;;;;;;23.75;38.44;99010.91;4483602;32;33878;-58
2021/04/29 00:36:00;;;;;;;10.88;3.12;;;;;;;23.76;38.49;99006.28;4483897;32;33880;-58
2021/04/29 00:38:28;;;;;;;7.45;2.45;;;;;;;23.75;38.47;99015.53;4483597;32;33100;-58
2021/04/29 00:40:55;;;;;;;7.25;2.85;;;;;;;23.74;38.45;99005.72;4484045;31;34577;-59
2021/04/29 00:43:22;;;;;;;9.02;2.87;;;;;;;23.74;38.50;99003.00;4482566;32;34700;-59
2021/04/29 00:45:49;;;;;;;8.73;3.03;;;;;;;23.73;38.71;99009.50;4483734;32;34226;-58
2021/04/29 00:48:16;;;;;;;9.02;2.90;;;;;;;23.72;38.62;99005.94;4483249;32;33385;-58
2021/04/29 00:50:43;;;;;;;13.40;2.97;;;;;;;23.71;38.62;99003.47;4468786;32;34615;-56
2021/04/29 00:53:10;;;;;;;7.60;2.87;;;;;;;23.72;38.60;99002.41;4483702;32;33707;-59
2021/04/29 00:55:38;;;;;;;7.28;2.85;;;;;;;23.72;38.64;99005.13;4483474;32;33646;-59
2021/04/29 00:58:05;;;;;;;9.27;2.70;;;;;;;23.71;38.53;98998.84;4483678;32;33017;-59
2021/04/29 01:00:34;;;;;;;7.25;2.50;;;;;;;23.71;38.57;99000.75;4483704;32;33734;-57
2021/04/29 01:03:16;;;;;;;8.90;2.62;;;;;;;23.70;38.54;98996.38;4483548;32;33570;-59
2021/04/29 01:05:54;;;;;;;7.72;3.00;;;;;;;23.72;38.51;99002.41;4482532;32;34678;-59
2021/04/29 01:08:28;;;;;;;7.30;2.53;;;;;;;23.70;38.53;98990.94;4469470;32;33627;-58
2021/04/29 01:11:17;;;;;;;7.45;2.53;;;;;;;23.68;38.59;98991.97;4483542;32;33816;-59
2021/04/29 01:13:48;;;;;;;10.02;2.90;;;;;;;23.68;38.58;98989.25;4481951;32;33953;-59
2021/04/29 01:16:16;;;;;;;8.55;2.95;;;;;;;23.67;38.54;98990.34;4483462;32;34591;-58
2021/04/29 01:18:44;;;;;;;9.13;3.05;;;;;;;23.66;38.58;98990.59;4469183;32;33286;-58
2021/04/29 01:21:15;;;;;;;5.93;2.53;;;;;;;23.66;38.54;98993.31;4483349;32;34677;-60
2021/04/29 01:23:45;;;;;;;7.22;2.10;;;;;;;23.65;38.63;98994.41;4469306;32;33945;-58
2021/04/29 01:26:31;;;;;;;10.75;2.58;;;;;;;23.66;38.55;98996.88;4483187;32;34349;-59
2021/04/29 01:29:10;;;;;;;8.05;2.50;;;;;;;23.64;38.54;98987.28;4482988;32;33444;-59
2021/04/29 01:31:39;;;;;;;12.35;2.83;;;;;;;23.65;38.58;98984.34;4481865;32;33857;-58
2021/04/29 01:34:07;;;;;;;7.78;2.20;;;;;;;23.64;38.59;98979.97;4481922;32;33737;-60
2021/04/29 01:36:35;;;;;;;8.93;3.05;;;;;;;23.63;38.63;98991.88;4481579;32;34461;-59
2021/04/29 01:39:04;;;;;;;7.47;2.60;;;;;;;23.64;38.76;98987.28;4482798;32;34198;-59
2021/04/29 01:41:31;;;;;;;7.28;2.90;;;;;;;23.63;38.75;98988.31;4482850;31;34585;-59
2021/04/29 01:43:58;;;;;;;6.75;3.03;;;;;;;23.64;38.71;98988.13;4481491;32;34854;-59
2021/04/29 01:46:26;;;;;;;7.87;2.40;;;;;;;23.64;38.69;98993.59;4481616;32;33731;-57
2021/04/29 01:48:53;;;;;;;8.27;2.58;;;;;;;23.63;38.70;98988.31;4483130;32;33286;-59
2021/04/29 01:51:20;;;;;;;5.72;2.45;;;;;;;23.63;38.70;98986.44;4468357;32;33701;-58
2021/04/29 01:53:48;;;;;;;13.10;2.50;;;;;;;23.62;38.67;98987.50;4468513;32;34171;-58
2021/04/29 01:56:15;;;;;;;9.93;2.92;;;;;;;23.62;38.71;98986.69;4481357;32;34021;-58
2021/04/29 01:58:42;;;;;;;7.28;2.78;;;;;;;23.62;38.65;98990.22;4482480;32;33494;-58
2021/04/29 02:01:09;;;;;;;7.45;2.47;;;;;;;23.61;38.75;98983.12;4484041;32;33521;-57
2021/04/29 02:03:36;;;;;;;6.85;2.50;;;;;;;23.62;38.69;98994.84;4481132;31;34529;-62
2021/04/29 02:06:08;;;;;;;9.35;2.78;;;;;;;23.61;38.66;98991.31;4467237;32;33743;-61
2021/04/29 02:08:35;;;;;;;8.27;2.28;;;;;;;23.61;38.71;98999.47;4469392;32;33298;-62
2021/04/29 02:11:04;;;;;;;9.73;2.78;;;;;;;23.60;38.61;98994.28;4479038;31;34645;-61
2021/04/29 02:13:32;;;;;;;8.25;2.40;;;;;;;23.60;38.61;98989.66;4467078;32;33986;-61
2021/04/29 02:16:02;;;;;;;7.47;2.50;;;;;;;23.59;38.63;98996.16;4457213;31;33961;-60
2021/04/29 02:18:30;;;;;;;4.78;2.05;;;;;;;23.59;38.64;98996.16;4484668;32;33507;-62
2021/04/29 02:21:04;;;;;;;6.05;2.53;;;;;;;23.60;38.58;98992.38;4479348;32;33912;-60
2021/04/29 02:23:38;;;;;;;8.38;2.40;;;;;;;23.58;38.74;98997.25;4468037;32;33557;-60
2021/04/29 02:26:05;;;;;;;5.78;2.85;;;;;;;23.58;38.73;98991.78;4454577;31;34497;-60
2021/04/29 02:28:33;;;;;;;6.55;2.28;;;;;;;23.58;38.72;98993.69;4468016;32;33186;-61
2021/04/29 02:31:04;;;;;;;5.55;2.40;;;;;;;23.57;38.82;98992.88;4455121;32;34522;-61
2021/04/29 02:33:31;;;;;;;6.15;2.25;;;;;;;23.57;38.88;98989.31;4467476;32;33957;-61
2021/04/29 02:36:03;;;;;;;6.35;2.45;;;;;;;23.56;38.88;98985.78;4482940;32;33872;-60
2021/04/29 02:38:42;;;;;;;6.80;2.05;;;;;;;23.55;38.90;98989.59;4482305;31;34163;-61
2021/04/29 02:41:09;;;;;;;8.82;2.40;;;;;;;23.56;38.87;98991.22;4487594;31;34514;-61
2021/04/29 02:43:37;;;;;;;7.37;2.17;;;;;;;23.56;38.88;98985.78;4488686;31;34801;-61
2021/04/29 02:46:14;;;;;;;6.35;2.53;;;;;;;23.53;38.92;98974.56;4484939;31;34974;-61
2021/04/29 02:48:41;;;;;;;6.97;2.40;;;;;;;23.53;38.90;98983.53;4493592;31;33198;-61
2021/04/29 02:51:08;;;;;;;5.97;2.22;;;;;;;23.52;38.91;98983.78;4482947;31;33698;-61
2021/04/29 02:53:35;;;;;;;8.32;2.90;;;;;;;23.52;38.92;98992.78;4470471;32;33936;-56
2021/04/29 02:56:04;;;;;;;6.78;2.58;;;;;;;23.52;38.89;98981.06;4483673;31;33863;-60
2021/04/29 02:58:31;;;;;;;9.65;2.90;;;;;;;23.51;38.74;98985.69;4477167;31;33313;-58
2021/04/29 03:00:58;;;;;;;5.05;2.45;;;;;;;23.52;38.76;98984.63;4461404;32;33753;-57
2021/04/29 03:03:26;;;;;;;5.85;2.25;;;;;;;23.52;38.85;98981.06;4467701;32;33825;-58
2021/04/29 03:05:53;;;;;;;7.72;2.50;;;;;;;23.52;38.87;98987.34;4471858;32;33697;-59
2021/04/29 03:08:20;;;;;;;7.70;2.58;;;;;;;23.51;38.78;98985.69;4470277;32;33366;-59
2021/04/29 03:10:48;;;;;;;5.95;2.10;;;;;;;23.52;38.73;98986.53;4484288;32;34646;-59
2021/04/29 03:13:15;;;;;;;13.07;2.85;;;;;;;23.50;38.82;98992.22;4483663;32;33985;-59
2021/04/29 03:15:42;;;;;;;7.45;2.30;;;;;;;23.49;38.78;98987.81;4484484;32;33968;-58
2021/04/29 03:18:09;;;;;;;7.43;2.35;;;;;;;23.50;38.77;98989.50;4484409;32;33315;-59
2021/04/29 03:20:40;;;;;;;7.82;2.75;;;;;;;23.50;38.91;98985.94;4484053;32;33802;-59
2021/04/29 03:23:13;;;;;;;7.03;2.40;;;;;;;23.50;38.92;98989.50;4476249;31;34088;-59
2021/04/29 03:25:41;;;;;;;7.18;1.98;;;;;;;23.50;38.91;98984.06;4477795;31;33767;-58
2021/04/29 03:28:08;;;;;;;7.65;2.78;;;;;;;23.49;38.89;98979.66;4475831;32;32805;-61
2021/04/29 03:30:35;;;;;;;5.47;2.40;;;;;;;23.49;38.89;98985.09;4484407;32;34518;-60
2021/04/29 03:33:02;;;;;;;7.53;2.10;;;;;;;23.49;38.82;98982.38;4471645;32;33132;-61
2021/04/29 03:35:32;;;;;;;5.15;2.10;;;;;;;23.49;38.81;98974.22;4468692;32;34284;-61
2021/04/29 03:38:05;;;;;;;4.90;2.33;;;;;;;23.49;38.85;98979.66;4468599;32;33632;-61
2021/04/29 03:40:34;;;;;;;7.93;2.30;;;;;;;23.49;38.78;98976.94;4468446;32;34032;-60
2021/04/29 03:43:01;;;;;;;5.35;1.95;;;;;;;23.48;38.82;98982.63;4468588;32;34881;-60
2021/04/29 03:45:29;;;;;;;4.97;2.30;;;;;;;23.47;38.82;98979.09;4483142;32;33650;-60
2021/04/29 03:47:56;;;;;;;6.62;2.75;;;;;;;23.48;38.81;98983.47;4484049;32;33163;-61
2021/04/29 03:50:23;;;;;;;5.93;2.20;;;;;;;23.48;38.84;98985.34;4484199;32;33673;-60
2021/04/29 03:52:50;;;;;;;6.60;2.60;;;;;;;23.49;38.75;98995.16;4484246;32;34959;-60
2021/04/29 03:55:17;;;;;;;7.30;2.37;;;;;;;23.47;39.06;98998.16;4484045;32;33841;-60
2021/04/29 03:57:45;;;;;;;8.60;2.50;;;;;;;23.47;39.15;98998.16;4484151;32;33410;-61
2021/04/29 04:00:13;;;;;;;6.95;2.30;;;;;;;23.47;39.17;99003.59;4484206;32;33549;-60
2021/04/29 04:02:41;;;;;;;7.28;2.12;;;;;;;23.47;39.10;99000.06;4484079;32;33828;-60
2021/04/29 04:05:10;;;;;;;8.50;1.90;;;;;;;23.48;39.07;98996.25;4484343;32;34529;-59
2021/04/29 04:07:38;;;;;;;7.05;2.40;;;;;;;23.46;39.08;98985.63;4484225;32;33342;-61
2021/04/29 04:10:07;;;;;;;7.62;2.25;;;;;;;23.48;39.06;98993.53;4484065;32;34842;-59
2021/04/29 04:12:35;;;;;;;6.80;2.22;;;;;;;23.47;39.09;98986.44;4484110;32;33459;-61
2021/04/29 04:15:02;;;;;;;6.10;2.22;;;;;;;23.47;39.07;98989.16;4483861;32;33998;-61
2021/04/29 04:17:30;;;;;;;6.32;2.20;;;;;;;23.46;39.08;98988.34;4483866;32;34352;-60
2021/04/29 04:20:18;;;;;;;5.70;2.35;;;;;;;23.46;39.07;98982.91;4480674;32;33847;-61
2021/04/29 04:22:45;;;;;;;5.10;2.08;;;;;;;23.47;39.07;98987.25;4468188;32;33838;-61
2021/04/29 04:25:12;;;;;;;11.20;2.78;;;;;;;23.46;38.99;98993.78;4468007;32;34612;-59
2021/04/29 04:27:39;;;;;;;6.85;2.05;;;;;;;23.46;38.92;98990.25;4473996;32;34385;-58
2021/04/29 04:30:10;;;;;;;7.28;2.17;;;;;;;23.45;38.89;98988.56;4479162;32;34089;-58
2021/04/29 04:32:37;;;;;;;7.12;2.20;;;;;;;23.45;38.87;98992.09;4469063;32;33613;-59
2021/04/29 04:35:04;;;;;;;3.90;1.90;;;;;;;23.44;38.88;98987.75;4471981;32;33782;-58
2021/04/29 04:37:31;;;;;;;10.60;2.17;;;;;;;23.42;38.89;98979.00;4483478;32;33474;-56
2021/04/29 04:39:58;;;;;;;5.00;2.00;;;;;;;23.42;39.03;98981.72;4483565;32;33939;-57
2021/04/29 04:42:25;;;;;;;6.85;2.67;;;;;;;23.42;39.02;98988.00;4483544;32;34967;-57
2021/04/29 04:44:53;;;;;;;8.23;1.92;;;;;;;23.42;39.04;98979.84;4483512;32;33923;-60
2021/04/29 04:47:20;;;;;;;5.15;2.00;;;;;;;23.42;39.04;98970.84;4479130;32;33184;-59
2021/04/29 04:49:47;;;;;;;5.28;2.20;;;;;;;23.42;39.07;98976.28;4467948;32;34951;-58
2021/04/29 04:52:15;;;;;;;6.65;2.33;;;;;;;23.41;39.11;98975.47;4468064;32;33855;-57
2021/04/29 04:54:42;;;;;;;6.20;2.17;;;;;;;23.42;39.08;98968.94;4467884;32;33822;-59
2021/04/29 04:57:10;;;;;;;5.75;2.10;;;;;;;23.42;39.13;98979.84;4467952;32;33841;-58
2021/04/29 04:59:38;;;;;;;5.93;1.83;;;;;;;23.41;39.09;98980.91;4467764;32;33448;-59
2021/04/29 05:02:05;;;;;;;6.07;2.10;;;;;;;23.42;39.09;98985.28;4467815;32;33919;-59
2021/04/29 05:04:33;;;;;;;6.95;2.10;;;;;;;23.41;39.11;98989.06;4469972;32;34343;-59
2021/04/29 05:07:01;;;;;;;12.60;2.40;;;;;;;23.42;39.18;98992.63;4467672;32;33427;-58
2021/04/29 05:09:29;;;;;;;9.70;2.40;;;;;;;23.41;39.07;98994.53;4467717;32;34018;-58
2021/04/29 05:11:56;;;;;;;11.65;2.15;;;;;;;23.41;39.03;98993.69;4467792;32;34292;-59
2021/04/29 05:14:24;;;;;;;5.40;1.83;;;;;;;23.41;38.98;98994.53;4467430;32;34332;-59
2021/04/29 05:16:52;;;;;;;6.68;2.37;;;;;;;23.40;39.04;98984.69;4470329;32;33640;-57
2021/04/29 05:19:19;;;;;;;7.53;2.37;;;;;;;23.41;39.01;98993.69;4474629;32;33813;-58
2021/04/29 05:21:46;;;;;;;5.90;2.08;;;;;;;23.39;39.07;98991.19;4483432;32;34727;-59
2021/04/29 05:24:13;;;;;;;7.10;2.00;;;;;;;23.40;39.11;98997.47;4470991;32;34745;-59
2021/04/29 05:26:40;;;;;;;6.22;2.00;;;;;;;23.39;39.14;98991.19;4467547;32;33873;-58
2021/04/29 05:29:08;;;;;;;5.68;1.85;;;;;;;23.40;39.07;98986.56;4467364;32;33877;-59
2021/04/29 05:31:36;;;;;;;6.25;2.03;;;;;;;23.40;39.17;98992.03;4472924;32;33932;-58
2021/04/29 05:34:03;;;;;;;5.93;2.20;;;;;;;23.40;39.03;98978.41;4470705;32;34645;-56
2021/04/29 05:36:31;;;;;;;5.87;2.05;;;;;;;23.39;39.10;98983.03;4477531;32;34494;-58
2021/04/29 05:38:58;;;;;;;9.57;4.43;;;;;;;23.45;39.08;98988.56;4475949;32;33848;-53
2021/04/29 05:41:25;;;;;;;11.45;4.57;;;;;;;23.42;39.15;98987.19;4476573;32;33804;-56
2021/04/29 05:43:52;;;;;;;15.93;4.28;;;;;;;23.40;39.11;98987.41;4469336;32;33745;-56
2021/04/29 05:46:19;;;;;;;10.48;4.10;;;;;;;23.39;39.15;98985.75;4483232;32;33273;-55
2021/04/29 05:48:46;;;;;;;12.75;3.92;;;;;;;23.38;39.20;98986.00;4480523;32;34709;-57
2021/04/29 05:51:14;;;;;;;15.00;4.18;;;;;;;23.36;39.38;98986.28;4477492;31;35071;-58
2021/04/29 05:53:41;;;;;;;12.25;3.67;;;;;;;23.37;39.22;98981.66;4481186;32;34795;-57
2021/04/29 05:56:08;;;;;;;10.77;4.25;;;;;;;23.37;39.14;98989.81;4484808;32;33395;-57
2021/04/29 05:58:35;;;;;;;13.82;3.70;;;;;;;23.38;39.24;98983.28;4476679;32;33786;-58
2021/04/29 06:01:03;;;;;;;11.23;3.67;;;;;;;23.38;39.27;98988.72;4468874;32;33547;-58
2021/04/29 06:03:30;;;;;;;13.27;3.87;;;;;;;23.38;39.21;98981.38;4469133;32;34085;-55
2021/04/29 06:05:57;;;;;;;11.25;3.22;;;;;;;23.39;39.19;98996.66;4469218;32;33511;-56
2021/04/29 06:08:24;;;;;;;10.30;3.90;;;;;;;23.39;39.17;98991.19;4482521;32;33598;-57
2021/04/29 06:10:51;;;;;;;8.95;3.20;;;;;;;23.39;39.23;99001.25;4484663;32;33670;-58
2021/04/29 06:13:18;;;;;;;15.15;3.87;;;;;;;23.40;39.31;99002.91;4484665;32;34470;-55
2021/04/29 06:15:45;;;;;;;8.75;3.53;;;;;;;23.38;39.37;98997.72;4484990;32;34358;-56
2021/04/29 06:18:16;;;;;;;11.48;3.95;;;;;;;23.41;39.36;99004.59;4484682;32;34470;-56
2021/04/29 06:20:43;;;;;;;8.57;3.33;;;;;;;23.41;39.30;99005.41;4484459;32;33862;-56
2021/04/29 06:23:10;;;;;;;7.80;3.22;;;;;;;23.43;39.21;99002.44;4484724;32;33680;-58
2021/04/29 06:25:37;;;;;;;8.48;3.50;;;;;;;23.43;39.27;98994.25;4484700;32;33325;-57
2021/04/29 06:28:04;;;;;;;9.80;3.33;;;;;;;23.41;39.36;98997.25;4484069;32;33854;-59
2021/04/29 06:30:32;;;;;;;7.95;3.08;;;;;;;23.42;39.36;99009.78;4484449;32;34648;-59
2021/04/29 06:32:59;;;;;;;9.85;3.30;;;;;;;23.42;39.43;99007.06;4484357;32;33770;-57
2021/04/29 06:35:26;;;;;;;10.80;3.05;;;;;;;23.43;39.27;99014.16;4484529;32;33275;-58
2021/04/29 06:37:53;;;;;;;6.43;3.10;;;;;;;23.43;39.35;99008.69;4484639;32;33768;-56
2021/04/29 06:40:22;;;;;;;9.15;3.20;;;;;;;23.46;39.22;99003.84;4479496;32;34935;-54
2021/04/29 06:42:49;;;;;;;11.35;3.55;;;;;;;23.45;39.37;99004.91;4475160;32;34330;-58
2021/04/29 06:45:16;;;;;;;13.77;3.85;;;;;;;23.43;39.39;99013.31;4473439;32;33425;-57
2021/04/29 06:47:43;;;;;;;11.80;3.87;;;;;;;23.44;39.52;99023.13;4478330;32;33634;-58
2021/04/29 06:50:10;;;;;;;10.55;4.32;;;;;;;23.41;39.63;99013.56;4484513;32;35047;-56
2021/04/29 06:52:37;;;;;;;13.65;4.30;;;;;;;23.42;39.52;99006.22;4484404;32;34075;-58
2021/04/29 06:55:05;;;;;;;11.90;3.92;;;;;;;23.43;39.38;99016.88;4484353;32;34556;-56
2021/04/29 06:57:32;;;;;;;14.68;4.10;;;;;;;23.43;39.37;99011.41;4484197;32;33753;-56
2021/04/29 06:59:59;;;;;;;11.25;4.35;;;;;;;23.44;39.37;99017.69;4484545;32;33949;-58
2021/04/29 07:02:27;;;;;;;7.72;3.70;;;;;;;23.45;39.32;99027.50;4484467;32;33565;-58
2021/04/29 07:05:00;;;;;;;10.98;4.05;;;;;;;23.45;39.31;99021.22;4484591;32;34272;-57
2021/04/29 07:07:28;;;;;;;9.27;3.90;;;;;;;23.45;39.31;99023.97;4484484;32;33974;-57
2021/04/29 07:09:55;;;;;;;7.45;3.50;;;;;;;23.42;39.43;99017.94;4483995;32;34050;-59
2021/04/29 07:12:22;;;;;;;11.65;3.83;;;;;;;23.43;39.32;99013.31;4484437;32;34484;-59
2021/04/29 07:14:49;;;;;;;9.63;3.53;;;;;;;23.46;39.30;99017.47;4484604;32;34164;-58
2021/04/29 07:17:16;;;;;;;12.90;3.95;;;;;;;23.46;39.25;99023.72;4484262;32;33852;-58
2021/04/29 07:19:44;;;;;;;13.48;3.70;;;;;;;23.45;39.38;99019.34;4481575;32;33945;-57
2021/04/29 07:22:11;;;;;;;10.25;3.87;;;;;;;23.45;39.33;99024.78;4475599;32;34235;-57
2021/04/29 07:24:38;;;;;;;11.30;3.95;;;;;;;23.46;39.36;99022.91;4484297;32;33338;-54
2021/04/29 07:27:05;;;;;;;8.75;3.70;;;;;;;23.46;39.32;99023.72;4479408;31;34406;-58
2021/04/29 07:29:34;;;;;;;12.77;3.83;;;;;;;23.47;39.36;99025.37;4484096;32;33752;-57
2021/04/29 07:32:01;;;;;;;10.05;4.03;;;;;;;23.46;39.38;99017.47;4483990;32;33751;-55
2021/04/29 07:34:28;;;;;;;10.40;3.90;;;;;;;23.47;39.36;99024.56;4484056;32;33766;-57
2021/04/29 07:37:01;;;;;;;7.53;3.40;;;;;;;23.47;39.48;99024.56;4484257;32;34767;-57
2021/04/29 07:39:29;;;;;;;13.70;3.90;;;;;;;23.46;39.39;99023.72;4472729;32;36008;-60
2021/04/29 07:41:56;;;;;;;13.60;4.12;;;;;;;23.47;39.41;99028.09;4468291;32;33981;-59
2021/04/29 07:44:23;;;;;;;11.25;3.85;;;;;;;23.48;39.43;99026.19;4478527;32;33594;-59
2021/04/29 07:46:51;;;;;;;11.93;4.97;;;;;;;23.47;39.56;99033.53;4483876;32;33871;-60
2021/04/29 07:49:18;;;;;;;9.82;4.57;;;;;;;23.48;39.61;99042.53;4483887;32;33834;-57
2021/04/29 07:51:45;;;;;;;14.13;5.05;;;;;;;23.50;39.44;99045.81;4483992;32;33791;-60
2021/04/29 07:54:15;;;;;;;16.48;5.37;;;;;;;23.49;39.48;99036.84;4484161;32;33423;-59
2021/04/29 07:56:42;;;;;;;13.73;4.70;;;;;;;23.50;39.67;99032.22;4484142;32;33791;-60
2021/04/29 07:59:10;;;;;;;13.35;5.25;;;;;;;23.58;39.58;99029.91;4483706;32;35006;-60
2021/04/29 08:01:43;;;;;;;12.57;4.68;;;;;;;23.73;39.42;99028.56;4482928;32;33739;-57
2021/04/29 08:04:10;;;;;;;13.35;4.12;;;;;;;23.91;39.14;99031.84;4480639;32;33460;-58
2021/04/29 08:06:37;;;;;;;12.60;4.30;;;;;;;24.11;38.84;99025.09;4491278;31;34920;-60
2021/04/29 08:09:05;;;;;;;13.88;4.28;;;;;;;24.29;38.57;99026.69;4479362;31;33826;-59
2021/04/29 08:11:32;;;;;;;16.17;4.53;;;;;;;24.47;38.34;99022.88;4478506;32;34661;-61
2021/04/29 08:13:59;;;;;;;14.85;4.47;;;;;;;24.62;38.12;99021.22;4484271;32;34180;-59
2021/04/29 08:16:26;;;;;;;10.00;4.37;;;;;;;24.78;37.93;99021.41;4483794;32;34806;-59
2021/04/29 08:18:53;;;;;;;10.88;4.50;;;;;;;24.91;37.79;99026.47;4483874;32;33952;-59
2021/04/29 08:21:41;;;;;;;13.18;4.12;;;;;;;25.03;37.63;99018.13;4483358;32;35322;-60
2021/04/29 08:24:08;;;;;;;10.73;3.80;;;;;;;25.15;37.48;99029.78;4481011;32;34138;-56
2021/04/29 08:26:36;;;;;;;14.98;5.03;;;;;;;25.21;37.39;99022.47;4483882;32;33704;-60
2021/04/29 08:29:03;;;;;;;14.77;4.20;;;;;;;25.27;37.30;99027.69;4483712;32;33657;-60
2021/04/29 08:31:31;;;;;;;11.65;4.03;;;;;;;25.32;37.28;99027.78;4479472;32;91956;-60
2021/04/29 08:33:58;;;;;;;12.30;4.00;;;;;;;25.35;37.22;99018.22;4483797;32;34345;-59
2021/04/29 08:36:29;;;;;;;11.68;4.47;;;;;;;25.37;37.24;99013.34;4483857;32;33592;-60
2021/04/29 08:38:58;;;;;;;9.30;4.05;;;;;;;25.38;37.23;99013.09;4483729;32;33718;-57
2021/04/29 08:41:25;;;;;;;12.80;4.07;;;;;;;25.40;37.19;99010.09;4483655;32;33780;-60
2021/04/29 08:43:52;;;;;;;15.73;5.20;;;;;;;25.39;37.21;99002.97;4483578;32;33035;-60
2021/04/29 08:46:19;;;;;;;10.30;4.37;;;;;;;25.41;37.28;98998.06;4483738;32;33747;-60
2021/04/29 08:48:46;;;;;;;9.25;4.60;;;;;;;25.39;37.26;99008.44;4483758;32;33826;-60
2021/04/29 08:51:13;;;;;;;13.95;4.57;;;;;;;25.38;37.25;99004.88;4469107;32;33800;-57
2021/04/29 08:53:41;;;;;;;14.60;4.45;;;;;;;25.37;37.30;99002.44;4483170;32;34852;-56
2021/04/29 08:56:08;;;;;;;14.07;4.60;;;;;;;25.33;37.29;99004.03;4483204;32;33936;-58
2021/04/29 08:58:35;;;;;;;9.50;4.45;;;;;;;25.32;37.35;99008.66;4482032;32;33922;-57
2021/04/29 09:01:03;;;;;;;18.12;5.05;;;;;;;25.31;37.38;99019.81;4480422;32;33699;-58
2021/04/29 09:03:32;;;;;;;14.38;4.57;;;;;;;25.29;37.45;99005.63;4468403;32;35017;-58
2021/04/29 09:06:00;;;;;;;14.43;4.43;;;;;;;25.27;37.51;99010.50;4483353;32;33835;-59
2021/04/29 09:08:32;;;;;;;10.13;4.75;;;;;;;25.25;37.52;99007.22;4483353;32;34642;-58
2021/04/29 09:11:11;;;;;;;8.77;4.05;;;;;;;25.22;37.63;99003.06;4482320;32;33824;-58
2021/04/29 09:13:40;;;;;;;12.68;4.22;;;;;;;25.22;37.62;99002.25;4483719;32;33113;-57
2021/04/29 09:16:15;;;;;;;15.45;4.72;;;;;;;25.17;37.70;98992.09;4483042;32;34111;-58
2021/04/29 09:18:42;;;;;;;17.15;5.37;;;;;;;25.16;37.77;98993.19;4483159;32;34702;-58
2021/04/29 09:21:14;;;;;;;13.15;4.65;;;;;;;25.12;37.86;98987.41;4483021;32;33758;-58
2021/04/29 09:23:46;;;;;;;10.65;4.20;;;;;;;25.10;37.87;98992.31;4483113;32;33581;-57
2021/04/29 09:26:16;;;;;;;13.45;4.40;;;;;;;25.08;37.92;98993.66;4483485;32;34536;-57
2021/04/29 09:28:47;;;;;;;13.50;4.62;;;;;;;25.05;37.99;98991.41;4483189;32;33390;-59
2021/04/29 09:31:18;;;;;;;13.02;5.20;;;;;;;25.04;38.03;98993.34;4482696;32;33754;-59
2021/04/29 09:33:48;;;;;;;10.48;4.07;;;;;;;25.01;38.10;98979.37;4481649;32;33327;-58
2021/04/29 09:36:30;;;;;;;14.35;4.12;;;;;;;24.98;38.20;98977.97;4482837;32;33762;-59
2021/04/29 09:39:08;;;;;;;13.40;4.50;;;;;;;24.97;38.24;98984.50;4483064;32;33777;-60
2021/04/29 09:41:45;;;;;;;9.70;4.70;;;;;;;24.94;38.29;98977.63;4482682;32;33896;-60
2021/04/29 09:44:14;;;;;;;11.70;5.18;;;;;;;24.91;38.39;98983.62;4482735;32;33357;-57
2021/04/29 09:46:44;;;;;;;12.88;4.22;;;;;;;24.87;38.44;98978.94;4482866;32;33853;-57
2021/04/29 09:49:31;;;;;;;12.13;4.68;;;;;;;24.86;38.49;98978.13;4482521;32;33804;-59
2021/04/29 09:51:59;;;;;;;13.50;4.43;;;;;;;24.85;38.50;98987.37;4482675;32;33740;-58
2021/04/29 09:54:31;;;;;;;11.55;4.75;;;;;;;24.80;38.61;98989.22;4467391;32;33132;-57
2021/04/29 09:57:06;;;;;;;12.13;4.05;;;;;;;24.79;38.67;98979.37;4466947;32;34490;-58
2021/04/29 09:59:35;;;;;;;8.25;3.87;;;;;;;24.76;38.70;98975.28;4472704;32;33819;-58
2021/04/29 10:02:03;;;;;;;10.73;4.40;;;;;;;24.73;38.79;98974.97;4482516;32;34784;-58
2021/04/29 10:04:30;;;;;;;15.45;4.30;;;;;;;24.71;38.86;98969.72;4482354;32;34072;-58
2021/04/29 10:06:59;;;;;;;9.85;3.80;;;;;;;24.69;38.87;98972.72;4482445;32;33814;-57
2021/04/29 10:09:28;;;;;;;;;;;;;;;24.67;38.93;98963.16;4482909;32;33864;-58
2021/04/29 10:11:56;;;;;;;12.18;4.10;;;;;;;24.78;38.75;98964.09;4478887;32;34218;-57
2021/04/29 10:14:24;;;;;;;8.57;4.15;;;;;;;24.66;38.96;98967.78;4476730;32;33286;-57
2021/04/29 10:16:52;;;;;;;10.32;4.22;;;;;;;24.63;39.03;98962.84;4482424;32;33790;-59
2021/04/29 10:19:19;;;;;;;7.90;4.18;;;;;;;24.63;39.10;98965.56;4482519;32;33658;-59
2021/04/29 10:21:46;;;;;;;12.68;4.25;;;;;;;24.60;39.14;98966.06;4467509;32;33813;-58
2021/04/29 10:24:14;;;;;;;9.15;3.85;;;;;;;24.59;39.16;98969.06;4467837;32;33363;-57
2021/04/29 10:26:42;;;;;;;12.00;4.72;;;;;;;24.57;39.20;98968.47;4455051;32;33712;-58
2021/04/29 10:29:09;;;;;;;11.57;4.10;;;;;;;24.56;39.28;98975.00;4454816;32;35364;-58
2021/04/29 10:31:36;;;;;;;9.63;3.90;;;;;;;24.56;39.24;98973.09;4469596;32;33587;-57
2021/04/29 10:34:15;;;;;;;8.85;4.35;;;;;;;24.57;39.26;98971.19;4484514;32;33286;-56
2021/04/29 10:36:47;;;;;;;11.73;4.65;;;;;;;24.55;39.32;98968.75;4484677;32;34762;-58
2021/04/29 10:39:17;;;;;;;9.65;4.12;;;;;;;24.53;39.34;98970.91;4484699;32;33615;-59
2021/04/29 10:41:48;;;;;;;9.82;4.15;;;;;;;24.52;39.33;98969.22;4484362;31;33833;-58
2021/04/29 10:44:19;;;;;;;8.48;3.50;;;;;;;24.52;39.35;98973.88;4484455;32;33029;-58
2021/04/29 10:46:47;;;;;;;11.00;3.95;;;;;;;24.49;39.39;98968.94;4484526;32;33719;-56
2021/04/29 10:49:15;;;;;;;10.43;3.83;;;;;;;24.49;39.38;98977.94;4484441;32;33825;-56
2021/04/29 10:51:46;;;;;;;7.50;3.78;;;;;;;24.49;39.43;98966.22;4484631;32;33873;-57
2021/04/29 10:54:20;;;;;;;8.25;4.30;;;;;;;24.48;39.49;98959.94;4484289;32;33415;-57
2021/04/29 10:57:01;;;;;;;11.30;4.25;;;;;;;24.47;39.50;98957.44;4484600;32;33719;-57
2021/04/29 10:59:41;;;;;;;7.93;3.70;;;;;;;24.46;39.50;98956.63;4484173;32;33584;-58
2021/04/29 11:02:31;;;;;;;13.68;4.10;;;;;;;24.47;39.51;98952.00;4484222;32;34987;-54
2021/04/29 11:04:58;;;;;;;10.50;3.85;;;;;;;24.46;39.55;98959.34;4484197;32;34545;-58
2021/04/29 11:07:26;;;;;;;9.63;3.83;;;;;;;24.44;39.62;98947.88;4479479;32;35253;-58
2021/04/29 11:10:07;;;;;;;11.02;4.25;;;;;;;24.42;39.60;98950.03;4471933;32;33936;-56
2021/04/29 11:12:53;;;;;;;8.63;3.97;;;;;;;24.43;39.59;98951.66;4468638;32;33878;-57
2021/04/29 11:15:38;;;;;;;12.05;4.20;;;;;;;24.42;39.63;98939.94;4468416;32;34174;-59
2021/04/29 11:18:13;;;;;;;7.25;3.47;;;;;;;24.40;39.69;98946.75;4468522;32;33897;-58
2021/04/29 11:21:00;;;;;;;10.77;3.83;;;;;;;24.38;39.67;98933.34;4468529;32;33512;-57
2021/04/29 11:23:39;;;;;;;10.95;3.92;;;;;;;24.38;39.66;98937.97;4479958;32;34433;-58
2021/04/29 11:26:16;;;;;;;7.97;3.72;;;;;;;24.38;39.70;98932.53;4483994;32;34172;-57
2021/04/29 11:28:44;;;;;;;7.53;3.95;;;;;;;24.37;39.69;98936.34;4484159;32;33911;-58
2021/04/29 11:31:11;;;;;;;8.52;3.80;;;;;;;24.36;39.71;98931.94;4483660;32;34961;-60
2021/04/29 11:33:39;;;;;;;8.18;3.85;;;;;;;24.33;39.73;98932.44;4475828;32;34574;-61
2021/04/29 11:36:19;;;;;;;8.45;4.47;;;;;;;24.31;39.72;98929.97;4468782;32;33009;-60
2021/04/29 11:38:56;;;;;;;13.50;5.03;;;;;;;24.33;39.67;98926.97;4482467;32;33913;-60